createdAt,value
2017-08-09T00:00:07.508Z,19.18
2017-08-09T00:01:08.106Z,19.14
2017-08-09T00:02:07.815Z,19.14
2017-08-09T00:03:07.808Z,19.15
2017-08-09T00:04:08.117Z,19.12
2017-08-09T00:05:08.282Z,19.19
2017-08-09T00:06:07.819Z,19.19
2017-08-09T00:07:07.825Z,19.26
2017-08-09T00:08:07.534Z,19.27
2017-08-09T00:09:07.823Z,19.22
2017-08-09T00:10:07.904Z,19.22
2017-08-09T00:11:07.833Z,19.26
2017-08-09T00:12:08.128Z,19.29
2017-08-09T00:13:07.827Z,19.21
2017-08-09T00:14:07.928Z,19.18
2017-08-09T00:15:08.405Z,19.21
2017-08-09T00:16:07.833Z,19.29
2017-08-09T00:17:08.140Z,19.18
2017-08-09T00:18:08.144Z,19.19
2017-08-09T00:19:07.846Z,19.12
2017-08-09T00:20:08.327Z,19.16
2017-08-09T00:21:08.154Z,19.18
2017-08-09T00:22:07.851Z,19.14
2017-08-09T00:23:08.156Z,19.15
2017-08-09T00:24:08.162Z,19.15
2017-08-09T00:25:07.892Z,19.15
2017-08-09T00:26:07.854Z,19.11
2017-08-09T00:27:08.159Z,19.09
2017-08-09T00:28:08.168Z,19.09
2017-08-09T00:29:09.969Z,19.07
2017-08-09T00:30:07.997Z,19.02
2017-08-09T00:31:08.172Z,19
2017-08-09T00:32:08.172Z,19
2017-08-09T00:33:08.178Z,18.96
2017-08-09T00:34:08.185Z,18.99
2017-08-09T00:35:08.294Z,19.09
2017-08-09T00:36:08.182Z,19.07
2017-08-09T00:37:08.183Z,19.09
2017-08-09T00:38:08.186Z,19.11
2017-08-09T00:39:08.188Z,19.12
2017-08-09T00:40:08.396Z,19.09
2017-08-09T00:41:08.201Z,19.12
2017-08-09T00:42:07.903Z,19.07
2017-08-09T00:43:07.907Z,19.07
2017-08-09T00:44:08.212Z,19.02
2017-08-09T00:45:08.430Z,19.09
2017-08-09T00:46:08.226Z,19.14
2017-08-09T00:47:08.206Z,19.04
2017-08-09T00:48:08.206Z,19.09
2017-08-09T00:49:07.914Z,19
2017-08-09T00:50:08.102Z,19.07
2017-08-09T00:51:08.223Z,19.08
2017-08-09T00:52:08.223Z,19.12
2017-08-09T00:53:07.919Z,19.08
2017-08-09T00:54:07.919Z,19.14
2017-08-09T00:55:08.424Z,19.14
2017-08-09T00:56:08.219Z,19.09
2017-08-09T00:57:08.239Z,19.08
2017-08-09T00:58:07.941Z,19.08
2017-08-09T00:59:08.243Z,19
2017-08-09T01:00:08.047Z,18.96
2017-08-09T01:01:08.242Z,19.02
2017-08-09T01:02:08.246Z,19.04
2017-08-09T01:03:08.241Z,19.07
2017-08-09T01:04:07.946Z,19.07
2017-08-09T01:05:08.153Z,19.07
2017-08-09T01:06:07.942Z,19.11
2017-08-09T01:07:08.296Z,19
2017-08-09T01:08:07.960Z,19.07
2017-08-09T01:09:08.258Z,19.04
2017-08-09T01:10:08.365Z,18.99
2017-08-09T01:11:08.260Z,19.04
2017-08-09T01:12:08.257Z,19.12
2017-08-09T01:13:07.963Z,19
2017-08-09T01:14:08.263Z,19.08
2017-08-09T01:15:08.531Z,19.02
2017-08-09T01:16:08.289Z,18.96
2017-08-09T01:17:08.279Z,18.93
2017-08-09T01:18:08.282Z,18.86
2017-08-09T01:19:08.284Z,18.89
2017-08-09T01:20:08.167Z,18.86
2017-08-09T01:21:08.280Z,18.75
2017-08-09T01:22:08.281Z,18.74
2017-08-09T01:23:08.283Z,18.75
2017-08-09T01:24:07.978Z,18.73
2017-08-09T01:25:08.527Z,18.7
2017-08-09T01:26:08.288Z,18.71
2017-08-09T01:27:08.299Z,18.8
2017-08-09T01:28:08.319Z,18.7
2017-08-09T01:29:08.291Z,18.73
2017-08-09T01:30:08.366Z,18.7
2017-08-09T01:31:08.300Z,18.73
2017-08-09T01:32:08.294Z,18.74
2017-08-09T01:33:07.695Z,18.74
2017-08-09T01:34:08.300Z,18.68
2017-08-09T01:35:08.135Z,18.63
2017-08-09T01:36:08.305Z,18.63
2017-08-09T01:37:08.327Z,18.66
2017-08-09T01:38:08.020Z,18.66
2017-08-09T01:39:08.329Z,18.65
2017-08-09T01:40:08.534Z,18.7
2017-08-09T01:41:08.319Z,18.71
2017-08-09T01:42:08.325Z,18.7
2017-08-09T01:43:08.325Z,18.68
2017-08-09T01:44:07.724Z,18.73
2017-08-09T01:45:08.114Z,18.68
2017-08-09T01:46:08.338Z,18.73
2017-08-09T01:47:08.339Z,18.71
2017-08-09T01:48:08.337Z,18.63
2017-08-09T01:49:08.335Z,18.66
2017-08-09T01:50:08.606Z,18.53
2017-08-09T01:51:08.347Z,18.53
2017-08-09T01:52:08.339Z,18.49
2017-08-09T01:53:08.344Z,18.58
2017-08-09T01:54:08.345Z,18.52
2017-08-09T01:55:08.675Z,18.55
2017-08-09T01:56:08.073Z,18.59
2017-08-09T01:57:08.356Z,18.55
2017-08-09T01:58:08.359Z,18.43
2017-08-09T01:59:08.358Z,18.44
2017-08-09T02:00:09.327Z,18.53
2017-08-09T02:01:08.062Z,18.52
2017-08-09T02:02:08.363Z,18.55
2017-08-09T02:03:08.368Z,18.53
2017-08-09T02:04:08.061Z,18.56
2017-08-09T02:05:08.170Z,18.56
2017-08-09T02:06:08.069Z,18.43
2017-08-09T02:07:08.376Z,18.47
2017-08-09T02:08:08.375Z,18.45
2017-08-09T02:09:07.776Z,18.38
2017-08-09T02:10:08.609Z,18.38
2017-08-09T02:11:08.382Z,18.29
2017-08-09T02:12:08.375Z,18.33
2017-08-09T02:13:08.393Z,18.26
2017-08-09T02:14:08.382Z,18.26
2017-08-09T02:15:08.641Z,18.31
2017-08-09T02:16:08.385Z,18.31
2017-08-09T02:17:08.089Z,18.26
2017-08-09T02:18:08.391Z,18.34
2017-08-09T02:19:08.399Z,18.23
2017-08-09T02:20:08.571Z,18.25
2017-08-09T02:21:08.398Z,18.26
2017-08-09T02:22:08.097Z,18.18
2017-08-09T02:23:08.403Z,18.18
2017-08-09T02:24:08.407Z,18.11
2017-08-09T02:25:08.773Z,18.05
2017-08-09T02:26:08.486Z,18.18
2017-08-09T02:27:08.406Z,18.04
2017-08-09T02:28:08.431Z,18.05
2017-08-09T02:29:08.408Z,18.03
2017-08-09T02:30:08.380Z,18.04
2017-08-09T02:31:08.424Z,17.87
2017-08-09T02:32:08.414Z,17.94
2017-08-09T02:33:08.416Z,17.85
2017-08-09T02:34:08.435Z,17.92
2017-08-09T02:35:08.326Z,17.8
2017-08-09T02:36:08.432Z,17.87
2017-08-09T02:37:08.123Z,17.82
2017-08-09T02:38:08.422Z,17.85
2017-08-09T02:39:08.426Z,17.82
2017-08-09T02:40:08.674Z,17.85
2017-08-09T02:41:08.440Z,17.82
2017-08-09T02:42:08.431Z,17.85
2017-08-09T02:43:08.438Z,17.85
2017-08-09T02:44:08.436Z,17.8
2017-08-09T02:45:08.713Z,17.79
2017-08-09T02:46:08.434Z,17.74
2017-08-09T02:47:08.447Z,17.8
2017-08-09T02:48:08.451Z,17.87
2017-08-09T02:49:08.441Z,17.94
2017-08-09T02:50:08.678Z,17.92
2017-08-09T02:51:08.444Z,17.82
2017-08-09T02:52:08.143Z,17.92
2017-08-09T02:53:08.144Z,17.94
2017-08-09T02:54:08.452Z,17.92
2017-08-09T02:55:08.236Z,17.76
2017-08-09T02:56:08.454Z,17.8
2017-08-09T02:57:08.450Z,17.86
2017-08-09T02:58:08.510Z,17.9
2017-08-09T02:59:08.158Z,17.74
2017-08-09T03:00:09.158Z,17.79
2017-08-09T03:01:08.473Z,17.76
2017-08-09T03:02:08.462Z,17.79
2017-08-09T03:03:08.159Z,17.8
2017-08-09T03:04:08.554Z,17.79
2017-08-09T03:05:08.442Z,17.68
2017-08-09T03:06:08.233Z,17.72
2017-08-09T03:07:07.880Z,17.72
2017-08-09T03:08:08.471Z,17.64
2017-08-09T03:09:08.474Z,17.63
2017-08-09T03:10:08.663Z,17.6
2017-08-09T03:11:08.471Z,17.51
2017-08-09T03:12:08.498Z,17.49
2017-08-09T03:13:08.476Z,17.49
2017-08-09T03:14:08.477Z,17.38
2017-08-09T03:15:08.245Z,17.44
2017-08-09T03:16:08.484Z,17.44
2017-08-09T03:17:08.487Z,17.39
2017-08-09T03:18:08.484Z,17.36
2017-08-09T03:19:08.485Z,17.41
2017-08-09T03:20:08.695Z,17.39
2017-08-09T03:21:08.186Z,17.31
2017-08-09T03:22:08.490Z,17.33
2017-08-09T03:23:08.496Z,17.34
2017-08-09T03:24:08.493Z,17.34
2017-08-09T03:25:08.842Z,17.3
2017-08-09T03:26:08.193Z,17.33
2017-08-09T03:27:08.498Z,17.38
2017-08-09T03:28:08.208Z,17.41
2017-08-09T03:29:08.511Z,17.52
2017-08-09T03:30:08.336Z,17.51
2017-08-09T03:31:08.507Z,17.49
2017-08-09T03:32:08.502Z,17.48
2017-08-09T03:33:08.506Z,17.48
2017-08-09T03:34:08.509Z,17.59
2017-08-09T03:35:08.708Z,17.57
2017-08-09T03:36:08.510Z,17.54
2017-08-09T03:37:08.513Z,17.59
2017-08-09T03:38:08.212Z,17.54
2017-08-09T03:39:08.517Z,17.54
2017-08-09T03:40:08.493Z,17.48
2017-08-09T03:41:08.523Z,17.57
2017-08-09T03:42:08.514Z,17.54
2017-08-09T03:43:08.526Z,17.46
2017-08-09T03:44:08.564Z,17.48
2017-08-09T03:45:11.682Z,17.52
2017-08-09T03:46:08.527Z,17.48
2017-08-09T03:47:08.524Z,17.45
2017-08-09T03:48:08.526Z,17.34
2017-08-09T03:49:08.534Z,17.33
2017-08-09T03:50:08.961Z,17.3
2017-08-09T03:51:08.535Z,17.39
2017-08-09T03:52:08.539Z,17.44
2017-08-09T03:53:08.535Z,17.27
2017-08-09T03:54:08.534Z,17.3
2017-08-09T03:55:09.021Z,17.31
2017-08-09T03:56:08.544Z,17.26
2017-08-09T03:57:08.548Z,17.14
2017-08-09T03:58:08.243Z,17.26
2017-08-09T03:59:08.540Z,17.15
2017-08-09T04:00:10.942Z,17.26
2017-08-09T04:01:08.546Z,17.14
2017-08-09T04:02:08.548Z,17.15
2017-08-09T04:03:08.551Z,17.19
2017-08-09T04:04:08.551Z,17.26
2017-08-09T04:05:08.837Z,17.24
2017-08-09T04:06:08.553Z,17.26
2017-08-09T04:07:08.557Z,17.24
2017-08-09T04:08:08.565Z,17.19
2017-08-09T04:09:08.561Z,17.31
2017-08-09T04:10:08.907Z,17.3
2017-08-09T04:11:08.259Z,17.33
2017-08-09T04:12:08.568Z,17.38
2017-08-09T04:13:08.561Z,17.36
2017-08-09T04:14:08.570Z,17.34
2017-08-09T04:15:08.570Z,17.41
2017-08-09T04:16:08.568Z,17.54
2017-08-09T04:17:08.567Z,17.56
2017-08-09T04:18:08.269Z,17.57
2017-08-09T04:19:08.573Z,17.63
2017-08-09T04:20:08.899Z,17.57
2017-08-09T04:21:08.580Z,17.56
2017-08-09T04:22:08.572Z,17.64
2017-08-09T04:23:08.588Z,17.59
2017-08-09T04:24:08.580Z,17.6
2017-08-09T04:25:08.902Z,17.51
2017-08-09T04:26:08.282Z,17.42
2017-08-09T04:27:08.284Z,17.41
2017-08-09T04:28:08.282Z,17.33
2017-08-09T04:29:08.585Z,17.41
2017-08-09T04:30:08.592Z,17.36
2017-08-09T04:31:08.640Z,17.38
2017-08-09T04:32:08.941Z,17.36
2017-08-09T04:33:08.592Z,17.33
2017-08-09T04:34:08.293Z,17.3
2017-08-09T04:35:08.442Z,17.27
2017-08-09T04:36:08.607Z,17.24
2017-08-09T04:37:08.597Z,17.27
2017-08-09T04:38:08.608Z,17.31
2017-08-09T04:39:08.299Z,17.27
2017-08-09T04:40:08.888Z,17.3
2017-08-09T04:41:08.608Z,17.22
2017-08-09T04:42:08.608Z,17.23
2017-08-09T04:43:08.612Z,17.3
2017-08-09T04:44:08.611Z,17.33
2017-08-09T04:45:08.848Z,17.31
2017-08-09T04:46:09.065Z,17.31
2017-08-09T04:47:08.613Z,17.31
2017-08-09T04:48:08.313Z,17.31
2017-08-09T04:49:08.618Z,17.31
2017-08-09T04:50:09.025Z,17.34
2017-08-09T04:51:08.622Z,17.36
2017-08-09T04:52:08.624Z,17.31
2017-08-09T04:53:08.621Z,17.36
2017-08-09T04:54:08.332Z,17.36
2017-08-09T04:55:08.980Z,17.39
2017-08-09T04:56:08.332Z,17.49
2017-08-09T04:57:08.640Z,17.39
2017-08-09T04:58:08.664Z,17.42
2017-08-09T04:59:08.632Z,17.41
2017-08-09T05:00:08.976Z,17.48
2017-08-09T05:01:08.401Z,17.51
2017-08-09T05:02:08.647Z,17.49
2017-08-09T05:03:08.634Z,17.51
2017-08-09T05:04:08.651Z,17.57
2017-08-09T05:05:08.907Z,17.59
2017-08-09T05:06:08.345Z,17.59
2017-08-09T05:07:08.348Z,17.59
2017-08-09T05:08:08.651Z,17.64
2017-08-09T05:09:08.651Z,17.74
2017-08-09T05:10:08.923Z,17.7
2017-08-09T05:11:08.653Z,17.82
2017-08-09T05:12:08.652Z,17.95
2017-08-09T05:13:08.652Z,17.9
2017-08-09T05:14:08.667Z,18.07
2017-08-09T05:15:08.693Z,18.03
2017-08-09T05:16:09.115Z,18.13
2017-08-09T05:17:08.677Z,18.2
2017-08-09T05:18:08.361Z,18.15
2017-08-09T05:19:08.671Z,18.2
2017-08-09T05:20:08.979Z,18.33
2017-08-09T05:21:08.670Z,18.35
2017-08-09T05:22:08.669Z,18.33
2017-08-09T05:23:08.674Z,18.49
2017-08-09T05:24:08.673Z,18.59
2017-08-09T05:25:09.001Z,18.68
2017-08-09T05:26:08.682Z,18.66
2017-08-09T05:27:08.679Z,18.71
2017-08-09T05:28:08.681Z,18.7
2017-08-09T05:29:08.385Z,18.8
2017-08-09T05:30:08.963Z,18.78
2017-08-09T05:31:10.525Z,18.93
2017-08-09T05:32:08.691Z,18.96
2017-08-09T05:33:08.700Z,18.96
2017-08-09T05:34:08.396Z,19.04
2017-08-09T05:35:08.659Z,19.09
2017-08-09T05:36:08.708Z,19.08
2017-08-09T05:37:08.700Z,19.15
2017-08-09T05:38:08.717Z,19.02
2017-08-09T05:39:08.708Z,19.04
2017-08-09T05:40:08.621Z,18.96
2017-08-09T05:41:08.718Z,19.02
2017-08-09T05:42:08.714Z,19.02
2017-08-09T05:43:08.720Z,18.96
2017-08-09T05:44:08.726Z,19
2017-08-09T05:45:08.983Z,19.07
2017-08-09T05:46:09.589Z,19.12
2017-08-09T05:47:08.435Z,19.11
2017-08-09T05:48:08.451Z,19.29
2017-08-09T05:49:08.732Z,19.31
2017-08-09T05:50:09.090Z,19.31
2017-08-09T05:51:08.133Z,19.31
2017-08-09T05:52:08.152Z,19.31
2017-08-09T05:53:08.750Z,19.39
2017-08-09T05:54:08.761Z,19.48
2017-08-09T05:55:09.092Z,19.49
2017-08-09T05:56:08.458Z,19.47
2017-08-09T05:57:08.754Z,19.59
2017-08-09T05:58:08.761Z,19.62
2017-08-09T05:59:08.463Z,19.59
2017-08-09T06:00:09.054Z,19.58
2017-08-09T06:01:08.820Z,19.56
2017-08-09T06:02:08.793Z,19.49
2017-08-09T06:03:08.769Z,19.45
2017-08-09T06:04:08.792Z,19.54
2017-08-09T06:05:09.138Z,19.51
2017-08-09T06:06:08.796Z,19.48
2017-08-09T06:07:08.476Z,19.51
2017-08-09T06:08:08.797Z,19.52
2017-08-09T06:09:08.491Z,19.64
2017-08-09T06:10:09.111Z,19.58
2017-08-09T06:11:08.797Z,19.66
2017-08-09T06:12:08.494Z,19.73
2017-08-09T06:13:08.805Z,19.71
2017-08-09T06:14:08.814Z,19.74
2017-08-09T06:15:09.178Z,19.67
2017-08-09T06:16:09.066Z,19.7
2017-08-09T06:17:08.509Z,19.73
2017-08-09T06:18:08.819Z,19.62
2017-08-09T06:19:08.824Z,19.7
2017-08-09T06:20:09.167Z,19.69
2017-08-09T06:21:08.815Z,19.79
2017-08-09T06:22:08.519Z,19.79
2017-08-09T06:23:08.532Z,19.81
2017-08-09T06:24:08.523Z,19.84
2017-08-09T06:25:08.708Z,19.86
2017-08-09T06:26:08.859Z,19.91
2017-08-09T06:27:08.839Z,20.04
2017-08-09T06:28:08.840Z,20.16
2017-08-09T06:29:08.859Z,20.26
2017-08-09T06:30:09.245Z,20.34
2017-08-09T06:31:08.926Z,20.28
2017-08-09T06:32:08.862Z,20.4
2017-08-09T06:33:08.551Z,20.4
2017-08-09T06:34:08.875Z,20.51
2017-08-09T06:35:08.825Z,20.5
2017-08-09T06:36:08.876Z,20.62
2017-08-09T06:37:08.884Z,20.66
2017-08-09T06:38:08.573Z,20.65
2017-08-09T06:39:08.878Z,20.63
2017-08-09T06:40:09.280Z,20.58
2017-08-09T06:41:08.919Z,20.58
2017-08-09T06:42:08.888Z,20.55
2017-08-09T06:43:08.584Z,20.6
2017-08-09T06:44:08.585Z,20.52
2017-08-09T06:45:09.263Z,20.55
2017-08-09T06:46:10.902Z,20.52
2017-08-09T06:47:08.905Z,20.58
2017-08-09T06:48:08.910Z,20.5
2017-08-09T06:49:08.909Z,20.69
2017-08-09T06:50:08.944Z,20.75
2017-08-09T06:51:08.927Z,20.69
2017-08-09T06:52:08.938Z,20.77
2017-08-09T06:53:08.627Z,20.7
2017-08-09T06:54:08.623Z,20.82
2017-08-09T06:55:08.907Z,20.88
2017-08-09T06:56:08.632Z,20.9
2017-08-09T06:57:08.331Z,20.96
2017-08-09T06:58:08.945Z,20.87
2017-08-09T06:59:08.639Z,20.96
2017-08-09T07:00:09.333Z,21.06
2017-08-09T07:01:08.954Z,21.15
2017-08-09T07:02:08.657Z,21.14
2017-08-09T07:03:08.962Z,21.09
2017-08-09T07:04:08.655Z,21.03
2017-08-09T07:05:09.333Z,21.11
2017-08-09T07:06:08.367Z,21.06
2017-08-09T07:07:08.674Z,20.97
2017-08-09T07:08:08.974Z,20.93
2017-08-09T07:09:08.686Z,20.85
2017-08-09T07:10:09.392Z,20.93
2017-08-09T07:11:09.006Z,21.03
2017-08-09T07:12:08.994Z,21.29
2017-08-09T07:13:08.695Z,21.48
2017-08-09T07:14:08.703Z,21.69
2017-08-09T07:15:09.363Z,21.99
2017-08-09T07:16:09.015Z,21.91
2017-08-09T07:17:09.016Z,21.82
2017-08-09T07:18:09.016Z,21.62
2017-08-09T07:19:09.021Z,21.46
2017-08-09T07:20:09.256Z,21.2
2017-08-09T07:21:08.724Z,21.06
2017-08-09T07:22:09.035Z,20.99
2017-08-09T07:23:09.033Z,20.9
2017-08-09T07:24:09.043Z,20.82
2017-08-09T07:25:09.455Z,20.72
2017-08-09T07:26:09.047Z,20.66
2017-08-09T07:27:08.459Z,20.81
2017-08-09T07:28:09.069Z,20.85
2017-08-09T07:29:08.768Z,20.92
2017-08-09T07:30:09.475Z,20.97
2017-08-09T07:31:09.075Z,21.07
2017-08-09T07:32:11.432Z,21.22
2017-08-09T07:33:09.080Z,21.14
2017-08-09T07:34:09.083Z,21.09
2017-08-09T07:35:09.456Z,21.06
2017-08-09T07:36:09.091Z,20.99
2017-08-09T07:37:09.092Z,20.93
2017-08-09T07:38:08.795Z,20.9
2017-08-09T07:39:09.101Z,21.02
2017-08-09T07:40:09.082Z,20.99
2017-08-09T07:41:09.110Z,21
2017-08-09T07:42:09.109Z,21.11
2017-08-09T07:43:09.118Z,21.17
2017-08-09T07:44:09.119Z,21.24
2017-08-09T07:45:09.204Z,21.5
2017-08-09T07:46:09.131Z,21.62
2017-08-09T07:47:09.532Z,21.85
2017-08-09T07:48:09.137Z,21.91
2017-08-09T07:49:09.143Z,22.15
2017-08-09T07:50:09.570Z,22.28
2017-08-09T07:51:08.850Z,22.29
2017-08-09T07:52:08.855Z,22.3
2017-08-09T07:53:08.851Z,22.55
2017-08-09T07:54:09.160Z,22.62
2017-08-09T07:55:09.548Z,22.51
2017-08-09T07:56:09.166Z,22.45
2017-08-09T07:57:09.176Z,22.3
2017-08-09T07:58:08.881Z,22.35
2017-08-09T07:59:09.181Z,22.17
2017-08-09T08:00:09.273Z,22.04
2017-08-09T08:01:09.195Z,21.99
2017-08-09T08:02:09.249Z,21.89
2017-08-09T08:03:09.200Z,21.67
2017-08-09T08:04:09.205Z,21.76
2017-08-09T08:05:09.608Z,21.93
2017-08-09T08:06:08.916Z,21.98
2017-08-09T08:07:09.222Z,22.28
2017-08-09T08:08:09.222Z,22.44
2017-08-09T08:09:08.932Z,22.62
2017-08-09T08:10:09.651Z,22.69
2017-08-09T08:11:09.236Z,22.69
2017-08-09T08:12:08.945Z,22.66
2017-08-09T08:13:08.942Z,22.69
2017-08-09T08:14:08.960Z,22.66
2017-08-09T08:15:09.674Z,22.57
2017-08-09T08:16:09.272Z,22.62
2017-08-09T08:17:10.770Z,22.57
2017-08-09T08:18:09.270Z,22.36
2017-08-09T08:19:08.975Z,22.2
2017-08-09T08:20:09.669Z,22.15
2017-08-09T08:21:09.282Z,22.2
2017-08-09T08:22:08.985Z,22.22
2017-08-09T08:23:09.295Z,22.3
2017-08-09T08:24:09.298Z,22.45
2017-08-09T08:25:09.733Z,22.62
2017-08-09T08:26:09.306Z,22.91
2017-08-09T08:27:09.305Z,23.05
2017-08-09T08:28:09.038Z,23.13
2017-08-09T08:29:09.321Z,23.36
2017-08-09T08:30:09.784Z,23.32
2017-08-09T08:31:09.335Z,23.34
2017-08-09T08:32:09.351Z,23.36
2017-08-09T08:33:09.358Z,23.41
2017-08-09T08:34:09.045Z,23.5
2017-08-09T08:35:09.798Z,23.58
2017-08-09T08:36:09.378Z,23.71
2017-08-09T08:37:09.057Z,23.81
2017-08-09T08:38:09.370Z,23.92
2017-08-09T08:39:09.066Z,24.17
2017-08-09T08:40:09.774Z,24.3
2017-08-09T08:41:09.082Z,24.6
2017-08-09T08:42:09.388Z,24.77
2017-08-09T08:43:09.087Z,25.07
2017-08-09T08:44:09.393Z,25.21
2017-08-09T08:45:09.497Z,25.41
2017-08-09T08:46:09.108Z,25.58
2017-08-09T08:47:09.445Z,25.55
2017-08-09T08:48:09.436Z,25.7
2017-08-09T08:49:09.132Z,25.63
2017-08-09T08:50:09.801Z,25.51
2017-08-09T08:51:09.438Z,25.38
2017-08-09T08:52:09.444Z,25.44
2017-08-09T08:53:09.444Z,25.55
2017-08-09T08:54:09.451Z,25.68
2017-08-09T08:55:09.907Z,25.87
2017-08-09T08:56:09.464Z,25.84
2017-08-09T08:57:09.468Z,25.73
2017-08-09T08:58:09.171Z,25.75
2017-08-09T08:59:09.486Z,25.43
2017-08-09T09:00:09.960Z,25.06
2017-08-09T09:01:09.191Z,24.88
2017-08-09T09:02:09.201Z,24.66
2017-08-09T09:03:11.554Z,24.57
2017-08-09T09:04:09.513Z,24.58
2017-08-09T09:05:09.660Z,24.53
2017-08-09T09:06:09.519Z,24.76
2017-08-09T09:07:09.528Z,24.77
2017-08-09T09:08:09.538Z,24.91
2017-08-09T09:09:09.546Z,25.08
2017-08-09T09:10:10.012Z,25.28
2017-08-09T09:11:09.551Z,25.6
2017-08-09T09:12:09.260Z,25.6
2017-08-09T09:13:09.561Z,25.6
2017-08-09T09:14:09.307Z,25.36
2017-08-09T09:15:10.070Z,25.23
2017-08-09T09:16:09.579Z,25.18
2017-08-09T09:17:09.594Z,25.13
2017-08-09T09:18:12.301Z,24.91
2017-08-09T09:19:09.614Z,24.6
2017-08-09T09:20:10.027Z,24.16
2017-08-09T09:21:09.313Z,23.99
2017-08-09T09:22:09.623Z,23.91
2017-08-09T09:23:09.629Z,23.83
2017-08-09T09:24:09.624Z,23.8
2017-08-09T09:25:09.778Z,23.62
2017-08-09T09:26:09.651Z,23.68
2017-08-09T09:27:09.649Z,23.74
2017-08-09T09:28:09.675Z,23.81
2017-08-09T09:29:09.659Z,23.87
2017-08-09T09:30:10.128Z,23.95
2017-08-09T09:31:09.364Z,24.1
2017-08-09T09:32:09.381Z,24.29
2017-08-09T09:33:09.676Z,24.43
2017-08-09T09:34:09.683Z,24.28
2017-08-09T09:35:10.030Z,24.13
2017-08-09T09:36:09.386Z,24.14
2017-08-09T09:37:09.713Z,24.3
2017-08-09T09:38:09.713Z,24.29
2017-08-09T09:39:09.427Z,24.5
2017-08-09T09:40:09.862Z,24.29
2017-08-09T09:41:09.726Z,24.13
2017-08-09T09:42:09.733Z,24.11
2017-08-09T09:43:09.427Z,24.06
2017-08-09T09:44:09.743Z,24.02
2017-08-09T09:45:09.828Z,24.02
2017-08-09T09:46:09.147Z,23.87
2017-08-09T09:47:09.750Z,23.74
2017-08-09T09:48:09.753Z,23.39
2017-08-09T09:49:09.761Z,23.24
2017-08-09T09:50:09.902Z,22.98
2017-08-09T09:51:09.764Z,23.13
2017-08-09T09:52:09.777Z,23.27
2017-08-09T09:53:09.473Z,23.48
2017-08-09T09:54:09.487Z,23.71
2017-08-09T09:55:09.784Z,24.02
2017-08-09T09:56:09.490Z,24.28
2017-08-09T09:57:09.503Z,24.18
2017-08-09T09:58:09.792Z,24.16
2017-08-09T09:59:09.799Z,24.14
2017-08-09T10:00:09.869Z,24.01
2017-08-09T10:01:09.504Z,23.83
2017-08-09T10:02:09.814Z,23.95
2017-08-09T10:03:09.516Z,23.93
2017-08-09T10:04:09.824Z,24.08
2017-08-09T10:05:10.324Z,24.33
2017-08-09T10:06:09.835Z,24.61
2017-08-09T10:07:09.541Z,24.88
2017-08-09T10:08:09.843Z,24.93
2017-08-09T10:09:09.865Z,25.25
2017-08-09T10:10:10.435Z,25.31
2017-08-09T10:11:09.865Z,25.28
2017-08-09T10:12:09.873Z,25.14
2017-08-09T10:13:09.898Z,24.96
2017-08-09T10:14:09.878Z,25.08
2017-08-09T10:15:10.469Z,24.96
2017-08-09T10:16:09.918Z,24.81
2017-08-09T10:17:09.905Z,24.84
2017-08-09T10:18:09.599Z,24.69
2017-08-09T10:19:10.073Z,24.69
2017-08-09T10:20:10.511Z,24.69
2017-08-09T10:21:09.613Z,24.63
2017-08-09T10:22:09.925Z,24.73
2017-08-09T10:23:09.622Z,24.84
2017-08-09T10:24:09.931Z,25.07
2017-08-09T10:25:10.945Z,25.11
2017-08-09T10:26:09.642Z,25.11
2017-08-09T10:27:09.966Z,25.04
2017-08-09T10:28:09.966Z,24.98
2017-08-09T10:29:09.669Z,24.95
2017-08-09T10:30:10.565Z,24.86
2017-08-09T10:31:09.972Z,24.91
2017-08-09T10:32:09.977Z,25.01
2017-08-09T10:33:09.974Z,25.28
2017-08-09T10:34:09.761Z,25.46
2017-08-09T10:35:10.149Z,25.58
2017-08-09T10:36:09.702Z,25.58
2017-08-09T10:37:09.708Z,25.47
2017-08-09T10:38:09.709Z,25.36
2017-08-09T10:39:09.737Z,25.28
2017-08-09T10:40:10.154Z,25.29
2017-08-09T10:41:10.058Z,25.31
2017-08-09T10:42:09.431Z,25.48
2017-08-09T10:43:09.744Z,25.58
2017-08-09T10:44:09.776Z,25.6
2017-08-09T10:45:09.818Z,25.62
2017-08-09T10:46:10.054Z,25.48
2017-08-09T10:47:09.753Z,25.23
2017-08-09T10:48:09.762Z,24.92
2017-08-09T10:49:11.066Z,24.84
2017-08-09T10:50:10.698Z,24.66
2017-08-09T10:51:10.101Z,24.84
2017-08-09T10:52:09.793Z,24.92
2017-08-09T10:53:09.798Z,25.04
2017-08-09T10:54:10.101Z,24.99
2017-08-09T10:55:10.433Z,24.84
2017-08-09T10:56:09.810Z,24.45
2017-08-09T10:57:09.810Z,24.17
2017-08-09T10:58:10.119Z,23.99
2017-08-09T10:59:10.120Z,23.96
2017-08-09T11:00:10.706Z,24.01
2017-08-09T11:01:10.141Z,24.17
2017-08-09T11:02:09.835Z,24.48
2017-08-09T11:03:10.145Z,24.68
2017-08-09T11:04:09.554Z,24.95
2017-08-09T11:05:10.598Z,25.21
2017-08-09T11:06:10.168Z,25.46
2017-08-09T11:07:10.169Z,25.7
2017-08-09T11:08:10.174Z,25.68
2017-08-09T11:09:10.206Z,25.65
2017-08-09T11:10:10.467Z,25.51
2017-08-09T11:11:09.889Z,25.47
2017-08-09T11:12:09.887Z,25.6
2017-08-09T11:13:09.893Z,25.55
2017-08-09T11:14:10.230Z,25.62
2017-08-09T11:15:10.512Z,25.55
2017-08-09T11:16:09.912Z,25.44
2017-08-09T11:17:10.212Z,25.22
2017-08-09T11:18:10.227Z,24.96
2017-08-09T11:19:12.779Z,24.93
2017-08-09T11:20:10.927Z,24.81
2017-08-09T11:21:09.943Z,24.73
2017-08-09T11:22:10.245Z,24.66
2017-08-09T11:23:10.266Z,24.6
2017-08-09T11:24:09.950Z,24.6
2017-08-09T11:25:10.549Z,24.45
2017-08-09T11:26:09.962Z,24.43
2017-08-09T11:27:10.284Z,24.55
2017-08-09T11:28:10.277Z,24.61
2017-08-09T11:29:10.030Z,24.85
2017-08-09T11:30:10.777Z,24.99
2017-08-09T11:31:10.293Z,25.21
2017-08-09T11:32:09.995Z,25.32
2017-08-09T11:33:10.306Z,25.63
2017-08-09T11:34:10.023Z,25.85
2017-08-09T11:35:11.078Z,26.07
2017-08-09T11:36:10.017Z,26.23
2017-08-09T11:37:10.029Z,26.26
2017-08-09T11:38:10.354Z,26.1
2017-08-09T11:39:10.331Z,25.83
2017-08-09T11:40:10.924Z,25.59
2017-08-09T11:41:10.354Z,25.46
2017-08-09T11:42:10.055Z,25.28
2017-08-09T11:43:10.366Z,25.11
2017-08-09T11:44:10.372Z,25.07
2017-08-09T11:45:10.850Z,24.89
2017-08-09T11:46:10.378Z,24.85
2017-08-09T11:47:10.085Z,24.91
2017-08-09T11:48:10.392Z,24.92
2017-08-09T11:49:10.392Z,24.99
2017-08-09T11:50:10.891Z,25.03
2017-08-09T11:51:10.135Z,25.13
2017-08-09T11:52:10.433Z,25.22
2017-08-09T11:53:09.810Z,25.33
2017-08-09T11:54:10.441Z,25.28
2017-08-09T11:55:10.424Z,25.32
2017-08-09T11:56:10.440Z,25.23
2017-08-09T11:57:10.435Z,25.21
2017-08-09T11:58:10.137Z,25.5
2017-08-09T11:59:10.451Z,25.53
2017-08-09T12:00:10.925Z,25.6
2017-08-09T12:01:10.169Z,25.66
2017-08-09T12:02:09.866Z,25.68
2017-08-09T12:03:10.484Z,25.65
2017-08-09T12:04:10.174Z,25.66
2017-08-09T12:05:11.345Z,25.68
2017-08-09T12:06:10.485Z,25.88
2017-08-09T12:07:10.498Z,26.02
2017-08-09T12:08:10.530Z,26.25
2017-08-09T12:09:10.530Z,26.34
2017-08-09T12:10:11.009Z,26.52
2017-08-09T12:11:10.227Z,26.66
2017-08-09T12:12:10.237Z,26.68
2017-08-09T12:13:10.528Z,26.85
2017-08-09T12:14:10.533Z,26.97
2017-08-09T12:15:10.565Z,26.88
2017-08-09T12:16:09.940Z,26.77
2017-08-09T12:17:10.565Z,26.48
2017-08-09T12:18:10.249Z,26.34
2017-08-09T12:19:10.568Z,26.15
2017-08-09T12:20:11.432Z,26.09
2017-08-09T12:21:10.594Z,25.81
2017-08-09T12:22:10.584Z,25.75
2017-08-09T12:23:10.594Z,25.66
2017-08-09T12:24:10.586Z,25.65
2017-08-09T12:25:10.945Z,25.62
2017-08-09T12:26:10.593Z,25.7
2017-08-09T12:27:10.614Z,25.66
2017-08-09T12:28:10.306Z,25.69
2017-08-09T12:29:10.613Z,25.85
2017-08-09T12:30:11.815Z,25.7
2017-08-09T12:31:10.621Z,25.6
2017-08-09T12:32:10.323Z,25.46
2017-08-09T12:33:10.628Z,25.32
2017-08-09T12:34:10.335Z,25.33
2017-08-09T12:35:13.186Z,25.22
2017-08-09T12:36:10.347Z,25.36
2017-08-09T12:37:10.354Z,25.46
2017-08-09T12:38:10.663Z,25.31
2017-08-09T12:39:10.660Z,25.32
2017-08-09T12:40:11.172Z,25.28
2017-08-09T12:41:10.674Z,25.28
2017-08-09T12:42:10.380Z,25.32
2017-08-09T12:43:10.692Z,25.43
2017-08-09T12:44:10.690Z,25.26
2017-08-09T12:45:11.216Z,25.29
2017-08-09T12:46:10.726Z,25.21
2017-08-09T12:47:10.705Z,25.06
2017-08-09T12:48:10.406Z,25.03
2017-08-09T12:49:10.712Z,24.98
2017-08-09T12:50:16.685Z,24.98
2017-08-09T12:51:10.423Z,24.99
2017-08-09T12:52:10.728Z,24.98
2017-08-09T12:53:10.735Z,24.98
2017-08-09T12:54:10.447Z,24.96
2017-08-09T12:55:11.399Z,24.93